Time;durP1;ratioP1;P1;durP2;ratioP2;P2;SDS_P1;SDS_P2;PMS_P1;PMS_P2;Temp;Humidity;BMP_temperature;BMP_pressure;BME280_temperature;BME280_humidity;BME280_pressure;Samples;Min_cycle;Max_cycle;Signal;HPM_P1;HPM_P2
2022/02/12 00:01:33;;;;;;;;;;;;;;;22.29;23.69;97143.66;10463028;28;1884;-49
2022/02/12 00:06:34;;;;;;;;;;;;;;;22.28;23.93;97142.88;10458079;28;1787;-44
2022/02/12 00:11:34;;;;;;;;;;;;;;;22.25;23.94;97146.03;10457623;28;1801;-45
2022/02/12 00:16:34;;;;;;;;;;;;;;;22.23;23.47;97147.31;10459399;28;1909;-44
2022/02/12 00:21:35;;;;;;;;;;;;;;;22.22;23.43;97143.88;10459989;28;2171;-47
2022/02/12 00:26:35;;;;;;;;;;;;;;;22.20;23.68;97135.41;10460116;28;1830;-47
2022/02/12 00:31:35;;;;;;;;;;;;;;;22.20;23.64;97124.84;10459411;28;1877;-45
2022/02/12 00:36:36;;;;;;;;;;;;;;;22.20;23.23;97126.69;10454455;28;1913;-44
2022/02/12 00:41:37;;;;;;;;;;;;;;;22.18;23.59;97124.28;10481751;28;1822;-46
2022/02/12 00:46:37;;;;;;;;;;;;;;;22.17;23.59;97119.28;10456062;28;1908;-45
2022/02/12 00:51:37;;;;;;;;;;;;;;;22.15;23.76;97122.16;10461555;28;1794;-45
2022/02/12 00:56:38;;;;;;;;;;;;;;;22.14;23.54;97117.91;10455877;28;1914;-45
2022/02/12 01:01:38;;;;;;;;;;;;;;;22.14;23.49;97117.91;10459637;28;1868;-45
2022/02/12 01:06:39;;;;;;;;;;;;;;;22.13;23.47;97118.97;10468227;28;1963;-52
2022/02/12 01:11:40;;;;;;;;;;;;;;;22.12;23.60;97116.56;10474509;28;1901;-47
2022/02/12 01:16:40;;;;;;;;;;;;;;;22.10;23.42;97122.09;10476332;28;1917;-47
2022/02/12 01:21:40;;;;;;;;;;;;;;;22.10;23.42;97122.09;10477146;28;1855;-47
2022/02/12 01:26:41;;;;;;;;;;;;;;;22.12;23.33;97116.56;10477246;28;1877;-45
2022/02/12 01:31:41;;;;;;;;;;;;;;;22.10;23.76;97108.91;10474927;28;1850;-46
2022/02/12 01:36:43;;;;;;;;;;;;;;;22.10;23.54;97114.19;10474211;22;2115;-60
2022/02/12 01:41:44;;;;;;;;;;;;;;;22.11;23.62;97109.72;10437735;28;2411;-59
2022/02/12 01:46:44;;;;;;;;;;;;;;;22.10;24.02;97105.47;10439646;28;1923;-57
2022/02/12 01:51:45;;;;;;;;;;;;;;;22.09;23.59;97096.72;10444424;28;1936;-59
2022/02/12 01:56:45;;;;;;;;;;;;;;;22.08;23.81;97089.88;10445559;28;2051;-58
2022/02/12 02:01:46;;;;;;;;;;;;;;;22.07;23.63;97075.06;10446797;28;1936;-58
2022/02/12 02:06:47;;;;;;;;;;;;;;;22.09;23.37;97072.19;10445638;28;1822;-59
2022/02/12 02:11:47;;;;;;;;;;;;;;;22.08;23.65;97074.03;10444883;28;1914;-60
2022/02/12 02:16:49;;;;;;;;;;;;;;;22.08;23.57;97065.31;10444923;28;2091;-60
2022/02/12 02:21:55;;;;;;;;;;;;;;;22.08;23.36;97070.59;10444290;28;1901;-60
2022/02/12 02:27:06;;;;;;;;;;;;;;;22.07;23.66;97056.56;10447229;28;1888;-61
2022/02/12 02:32:14;;;;;;;;;;;;;;;22.06;23.48;97068.19;10473371;28;1891;-59
2022/02/12 02:37:14;;;;;;;;;;;;;;;22.08;23.77;97066.09;10439980;28;1919;-61
2022/02/12 02:42:15;;;;;;;;;;;;;;;22.07;23.80;97066.38;10475196;28;1830;-61
2022/02/12 02:47:36;;;;;;;;;;;;;;;22.08;23.97;97066.09;10470455;28;1890;-61
2022/02/12 02:58:12;;;;;;;;;;;;;;;22.04;23.62;97054.47;10441594;28;2020;-60
2022/02/12 03:03:12;;;;;;;;;;;;;;;22.05;23.72;97061.31;10439193;28;2007;-61
2022/02/12 03:08:13;;;;;;;;;;;;;;;22.04;23.58;97057.09;10446759;28;1899;-60
2022/02/12 03:13:13;;;;;;;;;;;;;;;22.03;23.30;97044.94;10438335;28;2041;-61
2022/02/12 03:18:14;;;;;;;;;;;;;;;22.04;23.53;97041.25;10442229;28;1983;-62
2022/02/12 03:23:16;;;;;;;;;;;;;;;22.05;23.65;97042.06;10442141;28;1789;-60
2022/02/12 03:28:17;;;;;;;;;;;;;;;22.03;23.69;97029.09;10444401;28;1888;-61
2022/02/12 03:33:17;;;;;;;;;;;;;;;22.02;23.71;97031.97;10437201;28;1869;-59
2022/02/12 03:38:19;;;;;;;;;;;;;;;22.03;23.46;97023.03;10442330;28;2065;-60
2022/02/12 03:43:19;;;;;;;;;;;;;;;22.02;23.80;97021.44;10441534;28;1935;-60
2022/02/12 03:48:20;;;;;;;;;;;;;;;22.01;23.44;97017.97;10443735;28;1943;-61
2022/02/12 03:53:21;;;;;;;;;;;;;;;22.01;23.36;97007.41;10441003;28;1939;-61
2022/02/12 03:58:21;;;;;;;;;;;;;;;22.00;23.03;96999.75;10442839;28;1983;-60
2022/02/12 04:03:21;;;;;;;;;;;;;;;22.02;23.15;97000.31;10442119;28;2039;-61
2022/02/12 04:08:23;;;;;;;;;;;;;;;22.00;23.52;97000.56;10443183;28;1999;-57
2022/02/12 04:13:24;;;;;;;;;;;;;;;21.99;23.23;96993.69;10439368;28;1988;-60
2022/02/12 04:18:24;;;;;;;;;;;;;;;21.99;23.81;96988.41;10471261;28;1914;-60
2022/02/12 04:23:24;;;;;;;;;;;;;;;22.00;23.27;96984.72;10437589;28;1824;-61
2022/02/12 04:28:24;;;;;;;;;;;;;;;22.00;23.34;96981.28;10442034;28;1921;-60
2022/02/12 04:33:25;;;;;;;;;;;;;;;21.99;23.26;96977.06;10471959;28;1888;-60
2022/02/12 04:38:25;;;;;;;;;;;;;;;21.97;23.27;96982.56;10440799;28;2054;-61
2022/02/12 04:43:26;;;;;;;;;;;;;;;21.99;22.97;96979.69;10440552;28;1869;-61
2022/02/12 04:48:27;;;;;;;;;;;;;;;21.99;22.91;96977.84;10438177;28;1981;-61
2022/02/12 04:53:27;;;;;;;;;;;;;;;21.96;23.25;96970.44;10438861;28;1954;-61
2022/02/12 04:58:27;;;;;;;;;;;;;;;21.96;23.20;96959.88;10435852;28;1982;-61
2022/02/12 05:03:27;;;;;;;;;;;;;;;21.96;22.98;96959.06;10438352;28;1938;-60
2022/02/12 05:08:30;;;;;;;;;;;;;;;21.97;23.30;96960.69;10436194;28;1987;-60
2022/02/12 05:13:30;;;;;;;;;;;;;;;21.96;23.31;96956.44;10437579;28;1982;-60
2022/02/12 05:18:31;;;;;;;;;;;;;;;21.96;23.32;96959.88;10437634;28;1907;-59
2022/02/12 05:23:32;;;;;;;;;;;;;;;21.96;23.33;96948.50;10437023;28;1951;-57
2022/02/12 05:28:32;;;;;;;;;;;;;;;21.94;22.98;96940.84;10436439;28;1945;-59
2022/02/12 05:33:37;;;;;;;;;;;;;;;21.94;23.24;96935.56;10438382;28;1950;-60
2022/02/12 05:38:39;;;;;;;;;;;;;;;21.93;22.86;96941.88;10437268;28;1923;-59
2022/02/12 05:43:39;;;;;;;;;;;;;;;21.94;23.08;96940.84;10438746;28;1880;-60
2022/02/12 05:48:40;;;;;;;;;;;;;;;21.92;22.86;96931.59;10455134;28;1959;-62
2022/02/12 05:53:40;;;;;;;;;;;;;;;21.93;23.01;96933.19;10437425;28;2082;-59
2022/02/12 05:58:41;;;;;;;;;;;;;;;21.91;23.02;96941.34;10436557;28;1976;-59
2022/02/12 06:03:41;;;;;;;;;;;;;;;21.90;22.96;96939.78;10434495;28;1909;-60
2022/02/12 06:08:41;;;;;;;;;;;;;;;21.93;23.52;96933.97;10436263;28;1951;-61
2022/02/12 06:13:42;;;;;;;;;;;;;;;21.92;23.21;96932.38;10437514;28;1993;-61
2022/02/12 06:18:42;;;;;;;;;;;;;;;21.93;23.33;96933.97;10436486;28;1943;-60
2022/02/12 06:23:43;;;;;;;;;;;;;;;21.91;23.05;96919.44;10435023;28;1974;-59
2022/02/12 06:28:43;;;;;;;;;;;;;;;21.90;22.96;96921.28;10433147;28;1935;-60
2022/02/12 06:33:43;;;;;;;;;;;;;;;21.90;23.14;96921.28;10433265;28;1818;-59
2022/02/12 06:38:44;;;;;;;;;;;;;;;21.90;22.75;96928.41;10440413;28;1932;-60
2022/02/12 06:43:44;;;;;;;;;;;;;;;21.89;22.88;96919.69;10442913;28;1941;-60
2022/02/12 06:48:45;;;;;;;;;;;;;;;21.90;23.14;96918.66;10473158;28;1807;-58
2022/02/12 06:53:45;;;;;;;;;;;;;;;21.88;22.92;96916.25;10446723;28;1885;-60
2022/02/12 06:58:46;;;;;;;;;;;;;;;21.91;23.49;96914.94;10443020;28;2031;-59
2022/02/12 07:03:46;;;;;;;;;;;;;;;21.93;23.81;96917.34;10436309;28;2022;-59
2022/02/12 07:08:47;;;;;;;;;;;;;;;21.96;24.33;96920.28;10437762;28;1951;-60
2022/02/12 07:13:47;;;;;;;;;;;;;;;21.95;23.65;96917.91;10437912;28;1983;-61
2022/02/12 07:18:48;;;;;;;;;;;;;;;21.75;23.50;96921.13;10443341;28;1906;-59
2022/02/12 07:23:48;;;;;;;;;;;;;;;21.58;22.86;96916.00;10441605;28;1877;-61
2022/02/12 07:28:48;;;;;;;;;;;;;;;21.46;22.74;96907.44;10442143;28;1939;-60
2022/02/12 07:33:49;;;;;;;;;;;;;;;21.43;22.33;96909.81;10435583;28;2031;-59
2022/02/12 07:38:50;;;;;;;;;;;;;;;21.41;22.07;96904.00;10440231;28;1928;-60
2022/02/12 07:43:51;;;;;;;;;;;;;;;21.40;22.82;96899.75;10438441;28;2009;-60
2022/02/12 07:48:52;;;;;;;;;;;;;;;21.52;22.93;96900.38;10441040;28;1861;-59
2022/02/12 07:53:52;;;;;;;;;;;;;;;21.61;23.27;96894.41;10443627;28;1754;-59
2022/02/12 07:58:52;;;;;;;;;;;;;;;21.68;23.50;96900.22;10438139;28;1977;-58
2022/02/12 08:03:53;;;;;;;;;;;;;;;21.72;23.29;96900.53;10441072;28;1938;-58
2022/02/12 08:08:53;;;;;;;;;;;;;;;21.75;23.47;96892.09;10444695;28;1829;-57
2022/02/12 08:13:54;;;;;;;;;;;;;;;21.81;23.19;96888.44;10440446;28;2018;-60
2022/02/12 08:18:54;;;;;;;;;;;;;;;21.85;23.50;96887.72;10439264;28;1902;-60
2022/02/12 08:23:54;;;;;;;;;;;;;;;21.93;24.30;96881.16;10437842;28;1830;-62
2022/02/12 08:28:55;;;;;;;;;;;;;;;22.01;24.98;96858.78;10438381;28;1867;-58
2022/02/12 08:33:56;;;;;;;;;;;;;;;22.07;25.51;96863.81;10439162;28;1869;-59
2022/02/12 08:38:58;;;;;;;;;;;;;;;22.07;25.52;96870.97;10440924;28;1981;-57
2022/02/12 08:43:58;;;;;;;;;;;;;;;22.08;25.77;96862.78;10437667;28;1971;-58
2022/02/12 08:48:58;;;;;;;;;;;;;;;22.12;25.55;96850.66;10431302;28;1847;-57
2022/02/12 08:53:59;;;;;;;;;;;;;;;22.15;25.76;96857.28;10436887;28;1975;-56
2022/02/12 08:59:00;;;;;;;;;;;;;;;22.16;25.67;96840.38;10435558;28;1979;-58
2022/02/12 09:04:00;;;;;;;;;;;;;;;22.14;25.63;96843.28;10440252;28;1971;-56
2022/02/12 09:09:02;;;;;;;;;;;;;;;22.17;25.69;96834.03;10434271;28;2027;-57
2022/02/12 09:14:02;;;;;;;;;;;;;;;22.16;25.54;96838.53;10435562;22;2096;-47
2022/02/12 09:19:03;;;;;;;;;;;;;;;22.18;25.52;96828.50;10368591;28;1890;-46
2022/02/12 09:24:04;;;;;;;;;;;;;;;22.22;26.01;96823.50;10370310;28;1952;-48
2022/02/12 09:29:05;;;;;;;;;;;;;;;22.28;26.20;96814.53;10365339;28;1837;-47
2022/02/12 09:34:08;;;;;;;;;;;;;;;22.29;25.96;96816.94;10365703;28;1687;-47
2022/02/12 09:39:08;;;;;;;;;;;;;;;22.30;25.92;96807.94;10366706;28;1984;-46
2022/02/12 09:44:09;;;;;;;;;;;;;;;22.33;25.62;96799.50;10347034;28;1964;-49
2022/02/12 09:49:09;;;;;;;;;;;;;;;22.33;25.50;96796.06;10368971;28;1825;-46
2022/02/12 09:54:09;;;;;;;;;;;;;;;22.38;25.95;96785.53;10369385;28;2042;-46
2022/02/12 09:59:10;;;;;;;;;;;;;;;22.35;25.69;96786.03;10365488;28;1927;-46
2022/02/12 10:04:16;;;;;;;;;;;;;;;22.38;25.99;96773.09;10365560;28;1902;-48
2022/02/12 10:09:17;;;;;;;;;;;;;;;22.43;25.60;96786.34;10363038;28;1943;-50
2022/02/12 10:14:24;;;;;;;;;;;;;;;22.45;26.13;96781.59;10378912;28;1847;-47
2022/02/12 10:19:29;;;;;;;;;;;;;;;22.46;26.03;96782.38;10377233;28;1963;-50
2022/02/12 10:24:45;;;;;;;;;;;;;;;22.48;25.91;96770.47;10367753;28;1973;-50
2022/02/12 10:29:47;;;;;;;;;;;;;;;22.51;26.04;96771.81;10372358;28;1763;-48
2022/02/12 10:34:47;;;;;;;;;;;;;;;22.53;25.79;96759.94;10371035;28;1861;-46
2022/02/12 10:39:49;;;;;;;;;;;;;;;22.56;26.35;96759.41;10376227;28;2024;-50
2022/02/12 10:44:50;;;;;;;;;;;;;;;22.54;25.89;96745.69;10368530;28;1938;-50
2022/02/12 10:49:51;;;;;;;;;;;;;;;22.51;25.92;96734.81;10372220;28;2000;-49
2022/02/12 10:54:51;;;;;;;;;;;;;;;22.53;25.79;96725.56;10374616;28;1756;-51
2022/02/12 10:59:53;;;;;;;;;;;;;;;22.54;26.79;96719.25;10366040;28;1906;-48
2022/02/12 11:04:53;;;;;;;;;;;;;;;22.58;26.92;96717.69;10370193;28;1827;-46
2022/02/12 11:09:53;;;;;;;;;;;;;;;22.61;26.48;96701.31;10369741;28;1947;-47
2022/02/12 11:14:54;;;;;;;;;;;;;;;22.70;26.66;96679.63;10376024;28;1953;-46
2022/02/12 11:19:54;;;;;;;;;;;;;;;22.75;37.62;96677.00;10370610;28;1910;-48
2022/02/12 11:24:57;;;;;;;;;;;;;;;22.56;38.55;96671.41;10366616;28;1800;-48
2022/02/12 11:30:12;;;;;;;;;;;;;;;22.29;39.51;96671.66;10370948;28;1852;-46
2022/02/12 11:35:13;;;;;;;;;;;;;;;22.20;40.20;96670.56;10373233;28;1868;-48
2022/02/12 11:40:24;;;;;;;;;;;;;;;22.08;41.18;96650.75;10372142;28;1931;-46
2022/02/12 11:45:37;;;;;;;;;;;;;;;22.01;40.79;96645.72;10374148;28;1502;-49
2022/02/12 11:50:44;;;;;;;;;;;;;;;21.96;40.70;96637.00;10370221;28;1500;-50
2022/02/12 11:55:44;;;;;;;;;;;;;;;21.91;39.79;96624.56;10373734;28;1414;-46
2022/02/12 12:00:44;;;;;;;;;;;;;;;21.96;41.27;96627.22;10366904;28;1902;-46
2022/02/12 12:05:45;;;;;;;;;;;;;;;22.03;40.90;96622.47;10370565;28;1828;-47
2022/02/12 12:10:51;;;;;;;;;;;;;;;22.02;41.37;96628.84;10372747;28;1450;-44
2022/02/12 12:15:55;;;;;;;;;;;;;;;22.04;40.05;96618.00;10373288;28;1956;-47
2022/02/12 12:20:55;;;;;;;;;;;;;;;22.05;40.92;96616.97;10360841;28;1914;-48
2022/02/12 12:25:58;;;;;;;;;;;;;;;22.07;40.82;96612.97;10368684;28;1451;-44
2022/02/12 12:30:58;;;;;;;;;;;;;;;22.09;41.63;96605.59;10370182;28;1537;-49
2022/02/12 12:35:59;;;;;;;;;;;;;;;22.14;40.68;96599.53;10342775;28;1651;-48
2022/02/12 12:40:59;;;;;;;;;;;;;;;22.17;40.80;96596.38;10364118;28;1901;-48
2022/02/12 12:46:00;;;;;;;;;;;;;;;22.24;41.53;96587.13;10364109;28;1753;-45
2022/02/12 12:51:00;;;;;;;;;;;;;;;22.29;41.07;96579.22;10369441;28;1773;-45
2022/02/12 12:56:00;;;;;;;;;;;;;;;22.25;37.04;96578.16;10373641;28;1795;-48
2022/02/12 13:01:11;;;;;;;;;;;;;;;22.27;37.03;96562.84;10361907;28;1918;-45
2022/02/12 13:06:14;;;;;;;;;;;;;;;22.36;37.33;96555.19;10365876;28;1902;-48
2022/02/12 13:11:31;;;;;;;;;;;;;;;22.49;36.14;96557.25;10370215;28;1807;-47
2022/02/12 13:16:37;;;;;;;;;;;;;;;22.67;36.84;96546.97;10366653;28;1967;-46
2022/02/12 13:21:43;;;;;;;;;;;;;;;23.23;36.93;96536.19;10367079;28;1941;-51
2022/02/12 13:26:44;;;;;;;;;;;;;;;24.30;34.79;96539.84;10373140;28;1989;-48
2022/02/12 13:31:50;;;;;;;;;;;;;;;24.85;33.11;96539.31;10367849;28;1862;-52
2022/02/12 13:36:50;;;;;;;;;;;;;;;25.10;33.24;96533.72;10363025;28;1975;-49
2022/02/12 13:41:54;;;;;;;;;;;;;;;25.09;32.58;96526.84;10370418;28;1859;-49
2022/02/12 13:46:55;;;;;;;;;;;;;;;25.01;32.36;96511.56;10371492;28;1832;-49
2022/02/12 13:51:57;;;;;;;;;;;;;;;24.54;32.68;96519.47;10380207;28;1836;-50
2022/02/12 13:56:59;;;;;;;;;;;;;;;23.94;34.07;96503.00;10372136;28;1906;-49
2022/02/12 14:01:59;;;;;;;;;;;;;;;23.59;34.94;96511.19;10377030;28;1799;-49
2022/02/12 14:06:59;;;;;;;;;;;;;;;23.37;35.13;96489.59;10374437;28;1795;-50
2022/02/12 14:11:59;;;;;;;;;;;;;;;23.29;35.66;96490.94;10374130;28;1866;-51
2022/02/12 14:17:00;;;;;;;;;;;;;;;23.20;35.82;96489.16;10374531;28;1902;-49
2022/02/12 14:22:00;;;;;;;;;;;;;;;22.94;36.71;96475.25;10375033;28;1953;-49
2022/02/12 14:27:00;;;;;;;;;;;;;;;22.75;37.01;96484.81;10378844;28;1776;-51
2022/02/12 14:32:02;;;;;;;;;;;;;;;22.62;37.07;96488.84;10375240;28;1931;-49
2022/02/12 14:37:03;;;;;;;;;;;;;;;22.52;37.18;96480.88;10371672;28;1969;-52
2022/02/12 14:42:05;;;;;;;;;;;;;;;22.44;37.07;96476.16;10371919;28;1858;-48
2022/02/12 14:47:05;;;;;;;;;;;;;;;22.39;37.04;96478.81;10374755;28;1866;-52
2022/02/12 14:52:11;;;;;;;;;;;;;;;22.36;35.85;96471.44;10360636;28;1827;-44
2022/02/12 14:57:11;;;;;;;;;;;;;;;22.34;36.61;96462.97;10367005;28;1969;-52
2022/02/12 15:02:13;;;;;;;;;;;;;;;22.13;31.79;96468.56;10368123;28;1842;-44
2022/02/12 15:07:13;;;;;;;;;;;;;;;22.14;37.54;96465.66;10372325;28;1791;-48
2022/02/12 15:12:14;;;;;;;;;;;;;;;22.20;40.69;96467.22;10372079;28;1768;-50
2022/02/12 15:17:14;;;;;;;;;;;;;;;22.00;40.14;96463.81;10371057;28;1906;-52
2022/02/12 15:22:15;;;;;;;;;;;;;;;21.84;41.20;96468.31;10372736;28;1766;-47
2022/02/12 15:27:15;;;;;;;;;;;;;;;21.74;41.95;96463.00;10368940;28;1422;-50
2022/02/12 15:32:15;;;;;;;;;;;;;;;21.68;42.04;96461.41;10363305;28;1863;-50
2022/02/12 15:37:15;;;;;;;;;;;;;;;21.62;42.01;96465.09;10361202;28;1930;-47
2022/02/12 15:42:16;;;;;;;;;;;;;;;21.57;42.40;96465.09;10367508;28;1879;-46
2022/02/12 15:47:17;;;;;;;;;;;;;;;21.53;42.60;96464.03;10368266;28;1850;-52
2022/02/12 15:52:17;;;;;;;;;;;;;;;21.51;42.54;96463.53;10372415;28;1820;-48
2022/02/12 15:57:19;;;;;;;;;;;;;;;21.46;42.51;96464.28;10369884;28;2080;-48
2022/02/12 16:02:20;;;;;;;;;;;;;;;21.47;42.19;96470.38;10363589;28;2114;-48
2022/02/12 16:07:20;;;;;;;;;;;;;;;21.45;42.13;96472.47;10369979;28;1878;-49
2022/02/12 16:12:20;;;;;;;;;;;;;;;21.43;42.43;96466.69;10369400;28;1818;-46
2022/02/12 16:17:21;;;;;;;;;;;;;;;21.42;42.24;96475.63;10359933;28;1961;-46
2022/02/12 16:22:21;;;;;;;;;;;;;;;21.44;42.22;96473.53;10359538;28;1859;-46
2022/02/12 16:27:22;;;;;;;;;;;;;;;21.45;42.13;96480.41;10364470;28;1878;-45
2022/02/12 16:32:22;;;;;;;;;;;;;;;21.52;41.35;96468.53;10358528;28;1843;-46
2022/02/12 16:37:23;;;;;;;;;;;;;;;21.71;41.57;96459.06;10356608;28;1902;-49
2022/02/12 16:42:23;;;;;;;;;;;;;;;21.82;41.39;96467.78;10367032;28;1883;-48
2022/02/12 16:47:23;;;;;;;;;;;;;;;21.93;40.94;96458.81;10349304;28;1797;-49
2022/02/12 16:52:24;;;;;;;;;;;;;;;22.02;40.14;96462.50;10369595;28;3488;-47
2022/02/12 16:57:24;;;;;;;;;;;;;;;22.07;39.93;96456.44;10367802;28;1914;-50
2022/02/12 17:02:24;;;;;;;;;;;;;;;22.11;39.41;96450.38;10362167;28;2139;-51
2022/02/12 17:07:25;;;;;;;;;;;;;;;22.16;38.85;96457.47;10368300;28;1803;-48
2022/02/12 17:12:26;;;;;;;;;;;;;;;22.21;37.87;96460.91;10365604;28;1839;-45
2022/02/12 17:17:27;;;;;;;;;;;;;;;22.25;38.45;96451.41;10369125;28;1902;-49
2022/02/12 17:22:27;;;;;;;;;;;;;;;22.21;38.21;96445.06;10385581;28;1815;-45
2022/02/12 17:27:27;;;;;;;;;;;;;;;22.22;37.76;96449.28;10368935;28;1829;-45
2022/02/12 17:32:28;;;;;;;;;;;;;;;22.27;37.46;96446.63;10372270;28;1773;-45
2022/02/12 17:37:28;;;;;;;;;;;;;;;22.30;37.21;96445.28;10363726;28;1910;-46
2022/02/12 17:42:29;;;;;;;;;;;;;;;22.26;36.90;96442.41;10368190;28;1835;-44
2022/02/12 17:47:29;;;;;;;;;;;;;;;22.28;36.72;96450.84;10370512;28;1798;-49
2022/02/12 17:52:29;;;;;;;;;;;;;;;22.32;36.36;96451.88;10369395;28;1729;-50
2022/02/12 17:57:29;;;;;;;;;;;;;;;22.31;36.29;96457.44;10371224;28;1910;-49
2022/02/12 18:02:30;;;;;;;;;;;;;;;22.32;35.82;96446.59;10371047;28;1965;-48
2022/02/12 18:07:30;;;;;;;;;;;;;;;22.39;35.50;96441.84;10367559;28;1812;-48
2022/02/12 18:12:30;;;;;;;;;;;;;;;22.41;35.29;96439.72;10367529;28;1905;-47
2022/02/12 18:17:31;;;;;;;;;;;;;;;22.42;34.94;96435.25;10370029;28;1977;-51
2022/02/12 18:22:31;;;;;;;;;;;;;;;22.37;34.82;96428.13;10357462;28;1926;-50
2022/02/12 18:27:32;;;;;;;;;;;;;;;22.41;34.70;96426.53;10362035;28;1900;-47
2022/02/12 18:32:32;;;;;;;;;;;;;;;22.43;34.25;96413.84;10362336;28;1989;-47
2022/02/12 18:37:32;;;;;;;;;;;;;;;22.43;34.37;96411.19;10369991;28;1971;-45
2022/02/12 18:42:34;;;;;;;;;;;;;;;22.46;33.62;96410.63;10366717;28;1829;-45
2022/02/12 18:47:34;;;;;;;;;;;;;;;22.47;33.56;96401.66;10373133;28;1735;-45
2022/02/12 18:52:35;;;;;;;;;;;;;;;22.50;33.09;96402.97;10364635;28;1812;-45
2022/02/12 18:57:35;;;;;;;;;;;;;;;22.51;33.07;96397.41;10372174;28;1991;-45
2022/02/12 19:02:35;;;;;;;;;;;;;;;22.54;32.70;96393.47;10364130;28;1983;-46
2022/02/12 19:07:36;;;;;;;;;;;;;;;22.53;32.11;96384.72;10370093;28;1921;-47
2022/02/12 19:12:37;;;;;;;;;;;;;;;22.53;31.99;96382.09;10369318;28;1874;-48
2022/02/12 19:17:37;;;;;;;;;;;;;;;22.56;32.23;96384.19;10376094;28;1902;-50
2022/02/12 19:22:37;;;;;;;;;;;;;;;22.58;31.25;96381.31;10367779;28;1745;-46
2022/02/12 19:27:38;;;;;;;;;;;;;;;22.57;30.47;96374.41;10375499;28;1827;-48
2022/02/12 19:32:38;;;;;;;;;;;;;;;22.57;30.12;96375.19;10367881;28;1803;-47
2022/02/12 19:37:38;;;;;;;;;;;;;;;22.58;29.88;96371.53;10350338;28;1969;-48
2022/02/12 19:42:39;;;;;;;;;;;;;;;22.58;30.77;96371.53;10370695;28;1848;-54
2022/02/12 19:47:39;;;;;;;;;;;;;;;22.45;30.19;96366.00;10367296;28;1903;-53
2022/02/12 19:52:39;;;;;;;;;;;;;;;22.35;29.73;96353.63;10356037;28;1870;-52
2022/02/12 19:57:40;;;;;;;;;;;;;;;22.29;29.98;96359.19;10363260;28;1968;-53
2022/02/12 20:02:41;;;;;;;;;;;;;;;22.24;29.72;96360.00;10371322;28;1767;-54
2022/02/12 20:07:41;;;;;;;;;;;;;;;22.18;29.47;96363.72;10367292;28;1862;-52
2022/02/12 20:12:42;;;;;;;;;;;;;;;22.13;29.28;96363.75;10372546;28;1875;-48
2022/02/12 20:17:42;;;;;;;;;;;;;;;22.07;29.08;96356.88;10368786;28;1906;-53
2022/02/12 20:22:44;;;;;;;;;;;;;;;22.03;28.95;96358.47;10365136;28;1847;-51
2022/02/12 20:27:45;;;;;;;;;;;;;;;22.00;28.53;96359.03;10367020;28;1803;-52
2022/02/12 20:32:46;;;;;;;;;;;;;;;21.99;28.08;96352.16;10361140;28;1842;-54
2022/02/12 20:37:46;;;;;;;;;;;;;;;21.96;27.99;96339.50;10367240;28;1894;-51
2022/02/12 20:42:48;;;;;;;;;;;;;;;21.98;28.42;96340.03;10366838;28;1855;-52
2022/02/12 20:47:48;;;;;;;;;;;;;;;21.95;27.62;96337.13;10368285;28;1875;-53
2022/02/12 20:52:48;;;;;;;;;;;;;;;21.95;27.47;96332.63;10360818;28;1847;-57
2022/02/12 20:57:49;;;;;;;;;;;;;;;22.04;33.13;96330.22;10359595;28;1948;-57
2022/02/12 21:02:49;;;;;;;;;;;;;;;22.08;35.24;96331.28;10364379;28;2077;-55
2022/02/12 21:07:49;;;;;;;;;;;;;;;22.01;35.50;96328.91;10364473;28;2163;-55
2022/02/12 21:12:50;;;;;;;;;;;;;;;21.92;35.77;96321.81;10362141;28;1808;-49
2022/02/12 21:17:50;;;;;;;;;;;;;;;21.82;36.12;96323.41;10367815;28;2217;-52
2022/02/12 21:22:51;;;;;;;;;;;;;;;21.77;36.33;96322.63;10364169;28;1880;-49
2022/02/12 21:27:51;;;;;;;;;;;;;;;21.71;36.80;96321.03;10371294;28;1930;-50
2022/02/12 21:32:51;;;;;;;;;;;;;;;21.66;36.68;96326.31;10366118;28;2153;-51
2022/02/12 21:37:52;;;;;;;;;;;;;;;21.62;37.35;96328.69;10369715;28;1985;-53
2022/02/12 21:42:52;;;;;;;;;;;;;;;21.60;37.15;96330.00;10366616;28;1888;-51
2022/02/12 21:47:53;;;;;;;;;;;;;;;21.56;37.16;96327.13;10372942;28;1855;-53
2022/02/12 21:52:56;;;;;;;;;;;;;;;21.52;37.13;96330.56;10365081;28;1787;-49
2022/02/12 21:57:57;;;;;;;;;;;;;;;21.51;38.25;96321.88;10359772;28;1906;-50
2022/02/12 22:02:57;;;;;;;;;;;;;;;21.52;38.90;96330.56;10362228;28;1910;-48
2022/02/12 22:07:57;;;;;;;;;;;;;;;21.55;39.81;96325.56;10374204;28;1870;-48
2022/02/12 22:12:57;;;;;;;;;;;;;;;21.59;40.46;96331.09;10372460;28;1863;-48
2022/02/12 22:17:58;;;;;;;;;;;;;;;21.59;40.13;96315.25;10372926;28;1902;-48
2022/02/12 22:22:59;;;;;;;;;;;;;;;21.58;40.29;96316.31;10375019;28;1823;-51
2022/02/12 22:27:59;;;;;;;;;;;;;;;21.57;40.06;96325.28;10369037;28;1851;-52
2022/02/12 22:33:00;;;;;;;;;;;;;;;21.54;40.35;96318.69;10365212;28;1891;-51
2022/02/12 22:38:00;;;;;;;;;;;;;;;21.50;40.45;96309.72;10378185;28;1957;-51
2022/02/12 22:43:01;;;;;;;;;;;;;;;21.51;40.05;96313.97;10372981;28;1889;-53
2022/02/12 22:48:01;;;;;;;;;;;;;;;21.50;39.96;96314.19;10378556;28;1839;-52
2022/02/12 22:53:01;;;;;;;;;;;;;;;21.46;39.83;96308.69;10377286;28;1808;-49
2022/02/12 22:58:02;;;;;;;;;;;;;;;21.45;40.04;96298.41;10368349;28;1967;-52
2022/02/12 23:03:03;;;;;;;;;;;;;;;21.46;40.01;96310.53;10370269;28;2053;-48
2022/02/12 23:08:03;;;;;;;;;;;;;;;21.43;40.01;96301.28;10370691;28;1937;-51
2022/02/12 23:13:31;;;;;;;;;;;;;;;21.41;40.11;96300.75;10364385;28;1862;-55
2022/02/12 23:18:24;;;;;;;;;;;;;;;21.41;39.89;96302.63;10367573;28;2279;-52
2022/02/12 23:23:24;;;;;;;;;;;;;;;21.40;39.93;96301.03;10385143;28;1740;-50
2022/02/12 23:28:25;;;;;;;;;;;;;;;21.39;40.19;96288.91;10371077;28;1965;-50
2022/02/12 23:33:25;;;;;;;;;;;;;;;21.39;39.93;96291.56;10365285;28;1899;-49
2022/02/12 23:38:25;;;;;;;;;;;;;;;21.38;40.02;96282.03;10372489;28;1972;-56
2022/02/12 23:43:27;;;;;;;;;;;;;;;21.38;40.07;96282.03;10368157;28;1826;-49
2022/02/12 23:48:27;;;;;;;;;;;;;;;21.38;39.96;96282.03;10371344;28;1856;-49
2022/02/12 23:53:28;;;;;;;;;;;;;;;21.36;40.33;96274.41;10385382;28;1807;-50
2022/02/12 23:58:29;;;;;;;;;;;;;;;21.35;40.24;96274.69;10368581;28;1906;-53
